createdAt,value
2023-02-19T00:01:44.074Z,68.81
2023-02-19T00:04:14.963Z,68.68
2023-02-19T00:06:42.559Z,68.37
2023-02-19T00:09:11.515Z,68.31
2023-02-19T00:11:38.693Z,68.84
2023-02-19T00:14:06.467Z,69.12
2023-02-19T00:16:37.033Z,68.31
2023-02-19T00:19:05.754Z,68.62
2023-02-19T00:21:32.878Z,68.27
2023-02-19T00:24:03.081Z,68.31
2023-02-19T00:26:30.099Z,68.38
2023-02-19T00:28:57.742Z,68.56
2023-02-19T00:31:27.486Z,68.32
2023-02-19T00:33:57.661Z,68.55
2023-02-19T00:36:25.335Z,68.18
2023-02-19T00:38:52.506Z,68.75
2023-02-19T00:41:22.058Z,68.48
2023-02-19T00:49:04.186Z,67.76
2023-02-19T00:51:33.214Z,68.12
2023-02-19T00:54:00.294Z,68.19
2023-02-19T00:56:28.006Z,68.28
2023-02-19T00:58:55.274Z,68.08
2023-02-19T01:01:21.982Z,68.96
2023-02-19T01:03:49.006Z,68.38
2023-02-19T01:06:17.793Z,69.04
2023-02-19T01:08:45.155Z,68.20
2023-02-19T01:11:13.050Z,68.55
2023-02-19T01:13:40.459Z,68.93
2023-02-19T01:16:12.408Z,68.51
2023-02-19T01:18:39.113Z,68.54
2023-02-19T01:21:11.468Z,68.73
2023-02-19T01:23:40.431Z,68.59
2023-02-19T01:26:10.623Z,68.05
2023-02-19T01:28:38.786Z,68.14
2023-02-19T01:31:09.778Z,68.82
2023-02-19T01:33:38.687Z,68.17
2023-02-19T01:36:08.079Z,68.68
2023-02-19T01:38:36.309Z,68.45
2023-02-19T01:41:07.792Z,68.46
2023-02-19T01:43:56.255Z,67.82
2023-02-19T01:46:28.324Z,68.56
2023-02-19T01:49:00.454Z,68.69
2023-02-19T01:51:28.202Z,68.14
2023-02-19T01:53:59.049Z,68.13
2023-02-19T01:56:28.474Z,67.94
2023-02-19T01:58:55.411Z,68.21
2023-02-19T02:01:22.031Z,67.79
2023-02-19T02:03:49.665Z,68.42
2023-02-19T02:06:23.296Z,67.89
2023-02-19T02:09:13.295Z,68.19
2023-02-19T02:11:45.139Z,67.56
2023-02-19T02:14:12.391Z,67.80
2023-02-19T02:27:51.596Z,68.37
2023-02-19T02:30:30.278Z,68.34
2023-02-19T02:33:06.834Z,70.10
2023-02-19T02:35:39.848Z,69.54
2023-02-19T02:38:10.134Z,69.88
2023-02-19T02:40:39.835Z,70.45
2023-02-19T02:43:06.925Z,71.27
2023-02-19T02:45:37.217Z,71.12
2023-02-19T02:48:26.949Z,71.66
2023-02-19T02:54:05.522Z,71.55
2023-02-19T02:56:32.939Z,71.62
2023-02-19T02:59:02.368Z,73.36
2023-02-19T03:01:56.837Z,73.34
2023-02-19T03:05:03.486Z,73.85
2023-02-19T03:07:36.233Z,73.92
2023-02-19T03:10:07.212Z,74.23
2023-02-19T03:12:57.621Z,73.54
2023-02-19T03:15:48.970Z,74.37
2023-02-19T03:18:38.290Z,74.71
2023-02-19T03:21:07.288Z,75.06
2023-02-19T03:23:55.970Z,74.56
2023-02-19T03:26:25.486Z,75.35
2023-02-19T03:29:13.360Z,74.79
2023-02-19T03:31:43.323Z,74.40
2023-02-19T03:34:20.715Z,74.08
2023-02-19T03:36:55.575Z,74.36
2023-02-19T03:39:23.810Z,74.90
2023-02-19T03:42:00.981Z,73.84
2023-02-19T03:44:58.093Z,74.17
2023-02-19T03:47:29.044Z,73.87
2023-02-19T03:50:09.015Z,73.64
2023-02-19T03:55:39.722Z,72.45
2023-02-19T03:58:16.550Z,72.76
2023-02-19T04:00:54.093Z,72.70
2023-02-19T04:03:43.808Z,72.31
2023-02-19T04:06:13.953Z,72.84
2023-02-19T04:08:45.820Z,72.54
2023-02-19T04:11:15.582Z,72.44
2023-02-19T04:13:48.505Z,72.36
2023-02-19T04:16:24.179Z,72.27
2023-02-19T04:18:56.645Z,72.55
2023-02-19T04:21:24.403Z,72.32
2023-02-19T04:23:51.292Z,72.83
2023-02-19T04:26:22.464Z,73.06
2023-02-19T04:28:49.012Z,72.10
2023-02-19T04:31:15.647Z,71.96
2023-02-19T04:33:42.251Z,71.20
2023-02-19T04:36:11.073Z,70.91
2023-02-19T04:38:37.762Z,71.30
2023-02-19T04:41:04.450Z,70.97
2023-02-19T04:43:30.965Z,70.78
2023-02-19T04:46:01.668Z,70.43
2023-02-19T04:48:28.623Z,70.89
2023-02-19T04:50:55.235Z,70.73
2023-02-19T04:53:21.881Z,70.94
2023-02-19T04:55:48.551Z,69.87
2023-02-19T04:58:15.062Z,70.50
2023-02-19T05:00:41.602Z,70.31
2023-02-19T05:03:08.191Z,69.98
2023-02-19T05:05:35.518Z,70.75
2023-02-19T05:08:02.024Z,70.76
2023-02-19T05:10:28.571Z,71.01
2023-02-19T05:12:57.818Z,70.80
2023-02-19T05:15:24.508Z,69.70
2023-02-19T05:17:51.055Z,70.72
2023-02-19T05:20:17.730Z,70.25
2023-02-19T05:22:44.257Z,70.33
2023-02-19T05:25:10.786Z,69.22
2023-02-19T05:27:37.312Z,69.53
2023-02-19T05:30:04.209Z,69.83
2023-02-19T05:32:30.768Z,69.92
2023-02-19T05:34:57.326Z,69.15
2023-02-19T05:37:23.873Z,69.89
2023-02-19T05:39:50.432Z,68.91
2023-02-19T05:42:17.074Z,68.92
2023-02-19T05:44:43.786Z,69.11
2023-02-19T05:47:10.462Z,69.62
2023-02-19T05:49:37.112Z,69.92
2023-02-19T05:52:04.477Z,70.10
2023-02-19T05:54:31.742Z,69.38
2023-02-19T05:56:58.444Z,68.12
2023-02-19T05:59:26.138Z,67.97
2023-02-19T06:01:54.299Z,68.87
2023-02-19T06:04:21.096Z,68.50
2023-02-19T06:06:48.148Z,68.46
2023-02-19T06:09:14.694Z,68.15
2023-02-19T06:11:43.310Z,68.67
2023-02-19T06:14:12.684Z,68.19
2023-02-19T06:16:39.316Z,68.52
2023-02-19T06:19:05.921Z,69.10
2023-02-19T06:21:32.597Z,69.84
2023-02-19T06:23:59.350Z,68.80
2023-02-19T06:26:25.963Z,69.68
2023-02-19T06:28:53.463Z,68.50
2023-02-19T06:31:22.374Z,69.44
2023-02-19T06:33:50.703Z,68.56
2023-02-19T06:36:22.542Z,69.64
2023-02-19T06:38:49.466Z,68.87
2023-02-19T06:41:16.309Z,69.57
2023-02-19T06:43:43.168Z,68.74
2023-02-19T06:46:12.080Z,68.32
2023-02-19T06:48:40.137Z,68.93
2023-02-19T06:51:07.109Z,68.89
2023-02-19T06:53:33.618Z,68.81
2023-02-19T06:56:03.613Z,69.72
2023-02-19T06:58:30.838Z,69.06
2023-02-19T07:00:57.711Z,69.94
2023-02-19T07:03:26.279Z,69.14
2023-02-19T07:05:53.343Z,70.05
2023-02-19T07:08:19.968Z,70.45
2023-02-19T07:10:53.719Z,69.75
2023-02-19T07:13:20.301Z,69.79
2023-02-19T07:15:46.821Z,69.33
2023-02-19T07:18:13.411Z,70.35
2023-02-19T07:20:39.971Z,70.47
2023-02-19T07:23:06.544Z,69.41
2023-02-19T07:25:33.068Z,69.84
2023-02-19T07:27:59.594Z,70.12
2023-02-19T07:30:26.213Z,70.67
2023-02-19T07:32:52.832Z,69.43
2023-02-19T07:35:19.366Z,69.18
2023-02-19T07:37:45.905Z,69.44
2023-02-19T07:40:12.458Z,70.76
2023-02-19T07:42:39.128Z,69.89
2023-02-19T07:45:06.207Z,69.71
2023-02-19T07:47:32.766Z,70.80
2023-02-19T07:49:59.320Z,70.80
2023-02-19T07:52:25.896Z,70.52
2023-02-19T07:54:52.496Z,69.26
2023-02-19T07:57:19.069Z,69.81
2023-02-19T07:59:45.949Z,70.20
2023-02-19T08:02:37.743Z,70.46
2023-02-19T08:05:06.237Z,70.91
2023-02-19T08:07:34.372Z,70.36
2023-02-19T08:10:21.246Z,70.93
2023-02-19T08:13:16.877Z,69.88
2023-02-19T08:15:43.604Z,70.50
2023-02-19T08:18:10.832Z,69.72
2023-02-19T08:20:37.406Z,69.27
2023-02-19T08:23:04.467Z,69.05
2023-02-19T08:25:31.120Z,68.34
2023-02-19T08:27:57.689Z,67.63
2023-02-19T08:30:24.349Z,66.82
2023-02-19T08:32:50.986Z,66.37
2023-02-19T08:35:17.680Z,65.57
2023-02-19T08:37:44.402Z,64.13
2023-02-19T08:40:11.443Z,63.93
2023-02-19T08:42:38.344Z,63.94
2023-02-19T08:45:05.738Z,63.82
2023-02-19T08:47:34.855Z,62.43
2023-02-19T08:50:02.251Z,63.29
2023-02-19T08:52:28.803Z,61.46
2023-02-19T08:54:55.368Z,60.35
2023-02-19T08:57:22.297Z,60.40
2023-02-19T08:59:48.877Z,60.00
2023-02-19T09:02:15.432Z,59.45
2023-02-19T09:04:41.994Z,58.28
2023-02-19T09:07:11.060Z,57.98
2023-02-19T09:09:38.191Z,56.62
2023-02-19T09:12:06.408Z,55.63
2023-02-19T09:14:34.524Z,54.89
2023-02-19T09:17:01.793Z,54.19
2023-02-19T09:19:28.600Z,52.65
2023-02-19T09:21:55.641Z,52.86
2023-02-19T09:24:22.746Z,52.43
2023-02-19T09:26:50.243Z,51.43
2023-02-19T09:29:17.215Z,51.63
2023-02-19T09:31:44.126Z,50.07
2023-02-19T09:34:11.811Z,49.76
2023-02-19T09:36:39.120Z,51.03
2023-02-19T09:39:07.744Z,52.67
2023-02-19T09:41:37.928Z,52.29
2023-02-19T09:44:09.947Z,53.53
2023-02-19T09:46:42.944Z,53.76
2023-02-19T09:52:07.785Z,53.59
2023-02-19T09:54:36.689Z,55.05
2023-02-19T09:57:04.288Z,54.45
2023-02-19T09:59:40.092Z,53.63
2023-02-19T10:04:52.244Z,51.79
2023-02-19T10:07:25.027Z,50.53
2023-02-19T10:09:57.530Z,51.49
2023-02-19T10:12:28.532Z,51.86
2023-02-19T10:15:05.577Z,50.14
2023-02-19T10:17:34.709Z,49.40
2023-02-19T10:20:04.256Z,50.29
2023-02-19T10:22:34.003Z,49.33
2023-02-19T10:25:00.590Z,50.06
2023-02-19T10:27:31.160Z,49.23
2023-02-19T10:29:59.036Z,48.68
2023-02-19T10:32:27.690Z,48.27
2023-02-19T10:35:13.893Z,47.15
2023-02-19T10:37:50.676Z,45.81
2023-02-19T10:40:23.415Z,46.18
2023-02-19T10:42:55.946Z,44.72
2023-02-19T10:45:30.329Z,45.91
2023-02-19T10:47:57.241Z,44.65
2023-02-19T10:50:32.424Z,44.18
2023-02-19T10:53:00.962Z,44.02
2023-02-19T10:58:28.724Z,44.11
2023-02-19T11:01:19.924Z,43.51
2023-02-19T11:03:49.553Z,45.78
2023-02-19T11:06:20.290Z,46.42
2023-02-19T11:11:33.117Z,46.81
2023-02-19T11:14:05.158Z,48.04
2023-02-19T11:16:41.276Z,48.14
2023-02-19T11:19:33.166Z,48.40
2023-02-19T11:22:01.335Z,48.58
2023-02-19T11:24:34.912Z,49.31
2023-02-19T11:27:05.833Z,49.58
2023-02-19T11:29:35.445Z,49.82
2023-02-19T11:32:26.836Z,49.52
2023-02-19T11:35:14.602Z,50.45
2023-02-19T11:38:02.033Z,50.47
2023-02-19T11:40:39.919Z,50.49
2023-02-19T11:43:46.249Z,50.63
2023-02-19T11:49:29.086Z,50.88
2023-02-19T12:08:49.862Z,50.98
2023-02-19T12:17:01.977Z,51.87
2023-02-19T12:33:55.878Z,52.56
2023-02-19T12:45:24.441Z,52.65
2023-02-19T12:48:13.994Z,53.18
2023-02-19T12:50:42.039Z,53.46
2023-02-19T12:53:31.130Z,53.62
2023-02-19T12:56:03.313Z,53.67
2023-02-19T12:58:39.531Z,53.75
2023-02-19T13:01:08.809Z,53.74
2023-02-19T13:03:41.798Z,53.94
2023-02-19T13:11:28.133Z,54.64
2023-02-19T13:14:00.956Z,54.27
2023-02-19T13:16:33.192Z,54.49
2023-02-19T13:19:03.640Z,53.61
2023-02-19T13:21:53.275Z,54.16
2023-02-19T13:32:50.444Z,54.23
2023-02-19T13:35:56.779Z,53.69
2023-02-19T13:38:23.892Z,54.57
2023-02-19T13:41:00.266Z,54.33
2023-02-19T13:43:28.342Z,53.76
2023-02-19T13:45:59.224Z,54.48
2023-02-19T13:48:32.123Z,54.29
2023-02-19T13:59:37.339Z,55.15
2023-02-19T14:07:33.724Z,54.80
2023-02-19T14:10:01.997Z,54.63
2023-02-19T14:12:35.734Z,54.64
2023-02-19T14:18:02.086Z,54.45
2023-02-19T14:20:45.825Z,54.88
2023-02-19T14:23:22.909Z,54.36
2023-02-19T14:25:53.714Z,55.20
2023-02-19T14:34:18.630Z,54.37
2023-02-19T14:36:51.718Z,54.62
2023-02-19T14:39:24.547Z,55.18
2023-02-19T14:41:54.221Z,56.02
2023-02-19T14:44:25.836Z,55.06
2023-02-19T14:52:08.510Z,55.64
2023-02-19T14:57:39.803Z,56.33
2023-02-19T15:02:59.758Z,55.96
2023-02-19T15:05:30.825Z,56.28
2023-02-19T15:08:01.144Z,55.50
2023-02-19T15:10:30.688Z,55.94
2023-02-19T15:13:01.247Z,56.79
2023-02-19T15:15:32.616Z,56.12
2023-02-19T15:18:01.190Z,56.41
2023-02-19T15:20:30.818Z,55.86
2023-02-19T15:22:59.682Z,56.63
2023-02-19T15:25:33.712Z,57.33
2023-02-19T15:28:21.437Z,56.90
2023-02-19T15:30:48.186Z,57.18
2023-02-19T15:33:18.114Z,57.66
2023-02-19T15:35:53.807Z,56.99
2023-02-19T15:38:20.747Z,57.81
2023-02-19T15:40:48.796Z,57.41
2023-02-19T15:46:08.085Z,58.24
2023-02-19T15:49:14.440Z,58.16
2023-02-19T15:51:47.316Z,57.69
2023-02-19T15:54:26.996Z,57.55
2023-02-19T15:56:57.956Z,57.98
2023-02-19T16:02:01.656Z,57.95
2023-02-19T16:04:28.247Z,57.80
2023-02-19T16:06:59.203Z,58.26
2023-02-19T16:09:39.622Z,58.21
2023-02-19T16:12:24.681Z,58.15
2023-02-19T16:14:51.234Z,58.47
2023-02-19T16:17:23.038Z,58.83
2023-02-19T16:19:55.198Z,57.84
2023-02-19T16:22:25.503Z,59.10
2023-02-19T16:24:57.785Z,59.40
2023-02-19T16:27:36.473Z,59.40
2023-02-19T16:30:10.583Z,58.96
2023-02-19T16:32:37.227Z,59.27
2023-02-19T16:35:04.415Z,58.26
2023-02-19T16:37:37.301Z,58.52
2023-02-19T16:45:47.509Z,59.50
2023-02-19T16:48:14.279Z,59.79
2023-02-19T16:50:42.211Z,59.09
2023-02-19T16:53:18.535Z,60.18
2023-02-19T16:55:45.083Z,59.79
2023-02-19T16:58:11.633Z,60.44
2023-02-19T17:00:38.277Z,59.65
2023-02-19T17:03:10.300Z,60.08
2023-02-19T17:05:38.875Z,60.78
2023-02-19T17:08:42.333Z,60.35
2023-02-19T17:11:14.941Z,60.74
2023-02-19T17:13:42.521Z,60.36
2023-02-19T17:16:17.904Z,59.97
2023-02-19T17:18:44.511Z,61.43
2023-02-19T17:23:57.532Z,60.68
2023-02-19T17:26:27.819Z,61.67
2023-02-19T17:28:57.079Z,62.08
2023-02-19T17:31:23.860Z,61.64
2023-02-19T17:33:51.171Z,61.77
2023-02-19T17:36:21.057Z,62.34
2023-02-19T17:38:47.683Z,61.65
2023-02-19T17:41:14.233Z,61.55
2023-02-19T17:43:40.884Z,62.48
2023-02-19T17:46:13.479Z,62.25
2023-02-19T17:48:40.108Z,62.89
2023-02-19T17:51:06.746Z,62.71
2023-02-19T17:53:33.320Z,63.23
2023-02-19T17:55:59.854Z,62.27
2023-02-19T17:58:26.497Z,63.52
2023-02-19T18:00:53.439Z,62.96
2023-02-19T18:03:20.087Z,62.72
2023-02-19T18:05:46.630Z,63.56
2023-02-19T18:08:13.873Z,63.37
2023-02-19T18:10:40.403Z,64.13
2023-02-19T18:13:07.012Z,64.28
2023-02-19T18:15:33.734Z,63.18
2023-02-19T18:18:00.255Z,63.76
2023-02-19T18:20:28.591Z,63.65
2023-02-19T18:22:56.580Z,64.29
2023-02-19T18:25:23.585Z,64.07
2023-02-19T18:27:50.271Z,64.89
2023-02-19T18:30:19.432Z,65.10
2023-02-19T18:32:48.583Z,64.29
2023-02-19T18:35:16.589Z,64.96
2023-02-19T18:37:43.302Z,64.38
2023-02-19T18:40:10.909Z,65.25
2023-02-19T18:42:37.584Z,64.78
2023-02-19T18:45:04.804Z,65.14
2023-02-19T18:47:31.353Z,65.71
2023-02-19T18:49:59.270Z,65.55
2023-02-19T18:52:27.210Z,65.28
2023-02-19T18:54:55.614Z,65.75
2023-02-19T18:57:24.272Z,65.49
2023-02-19T18:59:51.280Z,65.92
2023-02-19T19:02:18.161Z,66.12
2023-02-19T19:04:50.068Z,65.73
2023-02-19T19:07:17.122Z,66.45
2023-02-19T19:09:43.684Z,66.37
2023-02-19T19:12:10.245Z,66.37
2023-02-19T19:14:37.446Z,66.35
2023-02-19T19:17:04.210Z,66.20
2023-02-19T19:19:30.757Z,66.51
2023-02-19T19:21:57.460Z,66.00
2023-02-19T19:24:25.089Z,66.52
2023-02-19T19:26:52.071Z,66.72
2023-02-19T19:29:22.028Z,66.76
2023-02-19T19:31:49.302Z,66.66
2023-02-19T19:34:16.460Z,67.19
2023-02-19T19:36:43.468Z,66.79
2023-02-19T19:39:10.027Z,66.91
2023-02-19T19:41:36.632Z,67.17
2023-02-19T19:44:04.978Z,67.31
2023-02-19T19:46:32.753Z,67.57
2023-02-19T19:48:59.446Z,67.82
2023-02-19T19:51:34.355Z,67.67
2023-02-19T19:54:04.088Z,67.66
2023-02-19T19:56:31.238Z,67.66
2023-02-19T19:58:57.848Z,68.21
2023-02-19T20:01:24.654Z,67.88
2023-02-19T20:03:51.290Z,67.87
2023-02-19T20:06:27.391Z,68.16
2023-02-19T20:08:54.283Z,68.46
2023-02-19T20:11:20.889Z,68.32
2023-02-19T20:13:47.454Z,68.83
2023-02-19T20:16:14.726Z,68.07
2023-02-19T20:18:41.996Z,68.00
2023-02-19T20:21:10.861Z,68.49
2023-02-19T20:23:39.865Z,68.48
2023-02-19T20:26:06.988Z,68.17
2023-02-19T20:28:33.681Z,68.04
2023-02-19T20:31:00.294Z,68.68
2023-02-19T20:33:26.904Z,68.74
2023-02-19T20:35:53.508Z,67.89
2023-02-19T20:38:20.081Z,68.25
2023-02-19T20:40:46.717Z,68.90
2023-02-19T20:43:13.266Z,68.90
2023-02-19T20:45:41.073Z,68.89
2023-02-19T20:48:07.646Z,68.61
2023-02-19T20:50:34.247Z,68.77
2023-02-19T20:53:01.207Z,68.73
2023-02-19T20:55:28.755Z,69.05
2023-02-19T20:57:55.346Z,68.47
2023-02-19T21:00:22.167Z,68.22
2023-02-19T21:02:48.811Z,68.34
2023-02-19T21:05:17.516Z,68.59
2023-02-19T21:07:44.092Z,69.06
2023-02-19T21:10:10.768Z,68.95
2023-02-19T21:12:37.366Z,68.86
2023-02-19T21:15:05.596Z,69.44
2023-02-19T21:17:32.200Z,68.57
2023-02-19T21:19:58.768Z,68.50
2023-02-19T21:22:25.408Z,69.83
2023-02-19T21:24:53.238Z,69.59
2023-02-19T21:27:20.445Z,69.86
2023-02-19T21:29:47.466Z,70.17
2023-02-19T21:32:14.158Z,69.25
2023-02-19T21:34:40.772Z,68.99
2023-02-19T21:37:07.338Z,69.97
2023-02-19T21:39:34.683Z,69.10
2023-02-19T21:42:01.708Z,69.93
2023-02-19T21:44:28.262Z,69.76
2023-02-19T21:46:54.826Z,69.94
2023-02-19T21:49:21.409Z,70.28
2023-02-19T21:51:49.653Z,69.50
2023-02-19T21:54:24.566Z,69.17
2023-02-19T21:56:53.191Z,69.88
2023-02-19T21:59:20.942Z,70.35
2023-02-19T22:01:48.156Z,69.56
2023-02-19T22:04:16.490Z,69.95
2023-02-19T22:06:43.612Z,70.54
2023-02-19T22:09:11.194Z,70.41
2023-02-19T22:11:38.206Z,70.29
2023-02-19T22:14:04.818Z,69.64
2023-02-19T22:16:31.587Z,69.35
2023-02-19T22:18:59.818Z,70.46
2023-02-19T22:21:29.487Z,69.66
2023-02-19T22:23:56.057Z,69.91
2023-02-19T22:28:59.591Z,70.48
2023-02-19T22:31:27.515Z,69.93
2023-02-19T22:33:57.564Z,71.21
2023-02-19T22:36:26.774Z,70.74
2023-02-19T22:38:54.018Z,71.35
2023-02-19T22:41:21.563Z,70.97
2023-02-19T22:43:48.853Z,71.20
2023-02-19T22:46:20.546Z,71.59
2023-02-19T22:48:47.212Z,70.31
2023-02-19T22:51:16.495Z,70.14
2023-02-19T22:56:23.918Z,70.65
2023-02-19T22:58:51.212Z,71.32
2023-02-19T23:01:18.335Z,71.25
2023-02-19T23:04:02.217Z,71.37
2023-02-19T23:06:32.170Z,72.71
2023-02-19T23:09:03.929Z,71.36
2023-02-19T23:11:33.889Z,71.96
2023-02-19T23:14:00.523Z,72.76
2023-02-19T23:16:27.732Z,71.00
2023-02-19T23:18:54.772Z,72.34
2023-02-19T23:21:22.287Z,72.47
2023-02-19T23:23:48.900Z,71.74
2023-02-19T23:26:16.315Z,71.55
2023-02-19T23:28:43.834Z,72.01
2023-02-19T23:31:11.388Z,71.35
2023-02-19T23:33:38.901Z,72.87
2023-02-19T23:36:06.456Z,72.94
2023-02-19T23:38:33.011Z,71.79
2023-02-19T23:41:00.015Z,73.24
2023-02-19T23:43:26.714Z,72.84
2023-02-19T23:45:53.530Z,72.73
2023-02-19T23:48:20.102Z,71.83
2023-02-19T23:50:46.655Z,71.82
2023-02-19T23:53:13.170Z,71.61
2023-02-19T23:55:39.726Z,72.71
2023-02-19T23:58:06.505Z,71.91
